Time;durP1;ratioP1;P1;durP2;ratioP2;P2;SDS_P1;SDS_P2;PMS_P1;PMS_P2;Temp;Humidity;BMP_temperature;BMP_pressure;BME280_temperature;BME280_humidity;BME280_pressure;Samples;Min_cycle;Max_cycle;Signal;HPM_P1;HPM_P2
2024/03/27 00:01:34;;;;;;;6.65;4.70;;;;;;;;;;4697181;30;20199;-81
2024/03/27 00:04:00;;;;;;;11.13;4.80;;;;;;;;;;4705242;30;20194;-80
2024/03/27 00:06:27;;;;;;;6.37;4.67;;;;;;;;;;4668976;30;20236;-81
2024/03/27 00:08:53;;;;;;;5.65;4.35;;;;;;;;;;4662042;30;20451;-82
2024/03/27 00:11:20;;;;;;;7.57;4.60;;;;;;;;;;4676349;30;20266;-81
2024/03/27 00:13:46;;;;;;;5.30;3.65;;;;;;;;;;4703901;30;20424;-81
2024/03/27 00:16:12;;;;;;;4.38;3.75;;;;;;;;;;4698617;30;20669;-81
2024/03/27 00:18:38;;;;;;;4.97;3.00;;;;;;;;;;4702324;30;20220;-81
2024/03/27 00:21:04;;;;;;;4.63;3.07;;;;;;;;;;4700298;30;20487;-81
2024/03/27 00:23:30;;;;;;;5.25;3.10;;;;;;;;;;4718911;30;20436;-82
2024/03/27 00:25:57;;;;;;;6.78;3.00;;;;;;;;;;4704788;30;20230;-81
2024/03/27 00:28:23;;;;;;;3.50;3.20;;;;;;;;;;4714661;30;20625;-81
2024/03/27 00:30:49;;;;;;;3.67;2.70;;;;;;;;;;4723609;30;20209;-82
2024/03/27 00:33:16;;;;;;;4.83;3.00;;;;;;;;;;4679196;30;20466;-81
2024/03/27 00:35:42;;;;;;;2.72;2.53;;;;;;;;;;4688074;30;20449;-81
2024/03/27 00:38:09;;;;;;;3.70;2.65;;;;;;;;;;4674145;30;20618;-81
2024/03/27 00:40:35;;;;;;;5.05;2.95;;;;;;;;;;4682065;30;20206;-81
2024/03/27 00:43:01;;;;;;;5.90;3.10;;;;;;;;;;4646587;30;20248;-82
2024/03/27 00:45:27;;;;;;;5.57;2.87;;;;;;;;;;4654474;30;20491;-81
2024/03/27 00:47:53;;;;;;;6.93;3.37;;;;;;;;;;4630010;30;20935;-82
2024/03/27 00:50:19;;;;;;;3.83;2.70;;;;;;;;;;4646023;30;20849;-82
2024/03/27 00:52:46;;;;;;;6.33;3.07;;;;;;;;;;4627627;30;20516;-82
2024/03/27 00:55:12;;;;;;;8.18;2.63;;;;;;;;;;4638549;30;20452;-82
2024/03/27 00:57:38;;;;;;;6.60;2.53;;;;;;;;;;4637419;30;20266;-82
2024/03/27 01:00:04;;;;;;;2.90;2.50;;;;;;;;;;4674493;30;20444;-82
2024/03/27 01:02:30;;;;;;;7.65;2.78;;;;;;;;;;4651902;30;20989;-81
2024/03/27 01:04:56;;;;;;;8.00;2.80;;;;;;;;;;4621250;31;20223;-81
2024/03/27 01:07:22;;;;;;;4.90;3.37;;;;;;;;;;4609683;31;20506;-82
2024/03/27 01:09:48;;;;;;;4.87;2.53;;;;;;;;;;4579406;31;20806;-82
2024/03/27 01:12:14;;;;;;;4.93;3.05;;;;;;;;;;4598330;31;20503;-81
2024/03/27 01:14:41;;;;;;;3.97;3.17;;;;;;;;;;4621213;31;20689;-81
2024/03/27 01:17:07;;;;;;;4.22;2.80;;;;;;;;;;4597203;31;20971;-82
2024/03/27 01:19:33;;;;;;;5.23;3.43;;;;;;;;;;4630984;30;20261;-82
2024/03/27 01:21:58;;;;;;;4.93;3.30;;;;;;;;;;4612599;31;21023;-82
2024/03/27 01:24:24;;;;;;;3.87;2.90;;;;;;;;;;4635715;30;20451;-82
2024/03/27 01:26:50;;;;;;;7.50;3.50;;;;;;;;;;4694173;30;20485;-82
2024/03/27 01:29:16;;;;;;;3.53;3.23;;;;;;;;;;4678425;30;20466;-82
2024/03/27 01:31:42;;;;;;;4.70;2.90;;;;;;;;;;4640869;30;20460;-82
2024/03/27 01:34:08;;;;;;;5.60;3.40;;;;;;;;;;4639735;30;20926;-82
2024/03/27 01:36:34;;;;;;;3.28;2.90;;;;;;;;;;4649748;30;20445;-82
2024/03/27 01:39:00;;;;;;;5.47;3.20;;;;;;;;;;4668928;30;20215;-82
2024/03/27 01:41:26;;;;;;;6.60;3.70;;;;;;;;;;4671338;30;20874;-82
2024/03/27 01:43:52;;;;;;;5.03;3.43;;;;;;;;;;4675706;30;20569;-82
2024/03/27 01:46:20;;;;;;;3.90;3.47;;;;;;;;;;4644695;30;20609;-82
2024/03/27 01:48:46;;;;;;;5.10;3.75;;;;;;;;;;4631391;30;20456;-81
2024/03/27 01:51:12;;;;;;;5.70;3.90;;;;;;;;;;4662617;30;20675;-82
2024/03/27 01:53:38;;;;;;;5.25;4.75;;;;;;;;;;4671618;30;20215;-82
2024/03/27 01:56:05;;;;;;;4.20;2.90;;;;;;;;;;4674216;30;20624;-82
2024/03/27 01:58:31;;;;;;;6.80;3.72;;;;;;;;;;4698900;30;20241;-81
2024/03/27 02:00:57;;;;;;;3.63;3.15;;;;;;;;;;4703500;30;20297;-82
2024/03/27 02:03:23;;;;;;;3.83;3.42;;;;;;;;;;4734012;30;20197;-82
2024/03/27 02:05:49;;;;;;;5.53;3.87;;;;;;;;;;4701482;30;20253;-82
2024/03/27 02:08:15;;;;;;;6.05;3.65;;;;;;;;;;4718055;30;20511;-82
2024/03/27 02:10:41;;;;;;;5.20;3.40;;;;;;;;;;4712465;30;20656;-82
2024/03/27 02:13:07;;;;;;;3.58;3.28;;;;;;;;;;4666161;30;20519;-82
2024/03/27 02:15:34;;;;;;;3.33;3.03;;;;;;;;;;4649702;30;20209;-82
2024/03/27 02:17:59;;;;;;;5.33;3.37;;;;;;;;;;4656239;30;20780;-82
2024/03/27 02:20:25;;;;;;;7.83;3.80;;;;;;;;;;4656914;30;20510;-82
2024/03/27 02:22:53;;;;;;;4.50;3.50;;;;;;;;;;4678944;30;20454;-82
2024/03/27 02:25:23;;;;;;;7.00;3.42;;;;;;;;;;4640040;30;20452;-82
2024/03/27 02:27:49;;;;;;;6.03;3.20;;;;;;;;;;4634050;30;20276;-82
2024/03/27 02:30:15;;;;;;;4.80;3.08;;;;;;;;;;4662288;30;20265;-82
2024/03/27 02:32:41;;;;;;;4.53;3.53;;;;;;;;;;4694166;30;20675;-82
2024/03/27 02:35:09;;;;;;;5.17;3.60;;;;;;;;;;4643888;30;20432;-81
2024/03/27 02:37:35;;;;;;;4.15;3.75;;;;;;;;;;4647758;30;20519;-82
2024/03/27 02:40:01;;;;;;;5.40;3.30;;;;;;;;;;4659482;30;20355;-81
2024/03/27 02:42:27;;;;;;;5.03;3.50;;;;;;;;;;4676545;30;20493;-81
2024/03/27 02:44:53;;;;;;;5.40;3.90;;;;;;;;;;4698807;30;20214;-82
2024/03/27 02:47:20;;;;;;;4.00;3.00;;;;;;;;;;4705307;30;20499;-82
2024/03/27 02:49:46;;;;;;;6.20;3.63;;;;;;;;;;4698323;30;20470;-81
2024/03/27 02:52:12;;;;;;;5.50;3.07;;;;;;;;;;4704279;30;20265;-82
2024/03/27 02:54:38;;;;;;;4.67;3.07;;;;;;;;;;4690928;30;20919;-82
2024/03/27 02:57:04;;;;;;;7.73;3.40;;;;;;;;;;4723674;30;20477;-82
2024/03/27 02:59:30;;;;;;;6.10;3.47;;;;;;;;;;4743747;30;20486;-82
2024/03/27 03:01:56;;;;;;;5.43;3.60;;;;;;;;;;4726460;30;20448;-82
2024/03/27 03:04:22;;;;;;;10.50;2.83;;;;;;;;;;4740605;30;20428;-82
2024/03/27 03:06:48;;;;;;;5.57;3.73;;;;;;;;;;4755808;30;20490;-82
2024/03/27 03:09:14;;;;;;;5.47;3.10;;;;;;;;;;4743052;30;20995;-82
2024/03/27 03:11:39;;;;;;;4.53;3.47;;;;;;;;;;4747116;29;20534;-82
2024/03/27 03:14:06;;;;;;;6.43;3.10;;;;;;;;;;4773596;30;20422;-82
2024/03/27 03:16:32;;;;;;;5.75;3.53;;;;;;;;;;4789367;29;20437;-82
2024/03/27 03:18:58;;;;;;;6.30;3.83;;;;;;;;;;4740479;29;20283;-82
2024/03/27 03:21:24;;;;;;;3.70;2.80;;;;;;;;;;4770292;29;20427;-81
2024/03/27 03:23:50;;;;;;;4.23;3.17;;;;;;;;;;4792898;29;20532;-82
2024/03/27 03:26:16;;;;;;;6.20;3.50;;;;;;;;;;4765033;29;20538;-82
2024/03/27 03:28:42;;;;;;;4.70;4.03;;;;;;;;;;4759605;29;20484;-82
2024/03/27 03:31:08;;;;;;;2.90;2.40;;;;;;;;;;4790778;29;20429;-82
2024/03/27 03:33:34;;;;;;;9.30;4.10;;;;;;;;;;4803319;29;20436;-82
2024/03/27 03:36:00;;;;;;;4.30;3.50;;;;;;;;;;4803792;29;20444;-82
2024/03/27 03:38:26;;;;;;;10.15;3.72;;;;;;;;;;4823667;29;20423;-82
2024/03/27 03:41:01;;;;;;;7.15;3.35;;;;;;;;;;4771502;29;20188;-82
2024/03/27 03:43:27;;;;;;;5.68;3.20;;;;;;;;;;4790413;29;20267;-82
2024/03/27 03:45:53;;;;;;;4.63;3.00;;;;;;;;;;4779353;29;20280;-82
2024/03/27 03:48:21;;;;;;;5.70;3.20;;;;;;;;;;4813141;29;20503;-82
2024/03/27 03:50:47;;;;;;;3.97;3.10;;;;;;;;;;4779584;29;20453;-82
2024/03/27 03:53:13;;;;;;;5.70;2.80;;;;;;;;;;4800860;29;20698;-82
2024/03/27 03:55:41;;;;;;;8.83;3.87;;;;;;;;;;4792474;29;20966;-82
2024/03/27 03:58:07;;;;;;;4.22;2.83;;;;;;;;;;4781400;29;20448;-82
2024/03/27 04:00:33;;;;;;;5.30;3.10;;;;;;;;;;4783291;29;20664;-82
2024/03/27 04:02:59;;;;;;;5.07;3.70;;;;;;;;;;4779730;29;20556;-82
2024/03/27 04:05:25;;;;;;;4.33;3.03;;;;;;;;;;4727153;30;20209;-82
2024/03/27 04:07:51;;;;;;;3.90;2.78;;;;;;;;;;4743485;30;20939;-82
2024/03/27 04:10:17;;;;;;;4.60;2.87;;;;;;;;;;4730320;30;20275;-82
2024/03/27 04:12:43;;;;;;;3.80;3.03;;;;;;;;;;4779777;30;20919;-82
2024/03/27 04:15:09;;;;;;;5.00;3.30;;;;;;;;;;4753419;29;20446;-82
2024/03/27 04:17:35;;;;;;;6.30;3.13;;;;;;;;;;4805171;29;20466;-82
2024/03/27 04:20:03;;;;;;;4.00;2.75;;;;;;;;;;4816608;29;20592;-82
2024/03/27 04:22:29;;;;;;;5.57;3.60;;;;;;;;;;4764685;29;20208;-82
2024/03/27 04:24:55;;;;;;;2.75;2.50;;;;;;;;;;4775218;29;20199;-82
2024/03/27 04:27:21;;;;;;;11.53;3.10;;;;;;;;;;4768759;29;20328;-81
2024/03/27 04:29:47;;;;;;;7.23;3.13;;;;;;;;;;4781410;29;20556;-82
2024/03/27 04:32:13;;;;;;;5.60;3.47;;;;;;;;;;4739263;29;20440;-82
2024/03/27 04:34:39;;;;;;;7.37;2.80;;;;;;;;;;4775579;29;20527;-82
2024/03/27 04:37:05;;;;;;;4.70;3.13;;;;;;;;;;4759094;30;20434;-82
2024/03/27 04:39:32;;;;;;;4.80;2.80;;;;;;;;;;4734535;29;20507;-81
2024/03/27 04:41:58;;;;;;;6.55;3.28;;;;;;;;;;4729444;30;20515;-82
2024/03/27 04:44:24;;;;;;;4.90;3.40;;;;;;;;;;4739994;30;20691;-82
2024/03/27 04:46:49;;;;;;;9.87;3.83;;;;;;;;;;4739944;30;20483;-82
2024/03/27 04:49:15;;;;;;;4.10;3.30;;;;;;;;;;4718831;30;20430;-82
2024/03/27 04:51:41;;;;;;;6.83;3.90;;;;;;;;;;4744364;30;20443;-82
2024/03/27 04:54:07;;;;;;;3.63;2.80;;;;;;;;;;4749566;30;20430;-80
2024/03/27 04:56:33;;;;;;;7.63;3.30;;;;;;;;;;4757516;30;20438;-82
2024/03/27 04:58:59;;;;;;;4.80;3.40;;;;;;;;;;4775208;30;20490;-82
2024/03/27 05:01:25;;;;;;;5.30;2.47;;;;;;;;;;4788282;29;20441;-82
2024/03/27 05:03:51;;;;;;;3.73;2.87;;;;;;;;;;4780194;29;20919;-82
2024/03/27 05:06:17;;;;;;;5.33;3.00;;;;;;;;;;4707300;30;20497;-82
2024/03/27 05:08:44;;;;;;;4.00;2.67;;;;;;;;;;4747391;30;20446;-82
2024/03/27 05:11:10;;;;;;;4.82;2.92;;;;;;;;;;4744522;30;20454;-82
2024/03/27 05:13:36;;;;;;;3.22;2.92;;;;;;;;;;4708148;30;20210;-82
2024/03/27 05:16:02;;;;;;;7.20;3.50;;;;;;;;;;4697444;30;20199;-82
2024/03/27 05:18:28;;;;;;;6.50;2.90;;;;;;;;;;4694758;30;20213;-82
2024/03/27 05:20:54;;;;;;;7.90;3.03;;;;;;;;;;4689789;30;20484;-82
2024/03/27 05:23:21;;;;;;;4.22;3.03;;;;;;;;;;4700620;30;20440;-82
2024/03/27 05:25:47;;;;;;;3.88;2.75;;;;;;;;;;4671728;30;20651;-82
2024/03/27 05:28:13;;;;;;;4.43;3.30;;;;;;;;;;4730376;30;20204;-82
2024/03/27 05:30:39;;;;;;;4.70;3.03;;;;;;;;;;4688898;30;20583;-81
2024/03/27 05:33:07;;;;;;;11.50;3.22;;;;;;;;;;4718882;30;20512;-82
2024/03/27 05:35:33;;;;;;;5.95;3.28;;;;;;;;;;4738633;30;20201;-82
2024/03/27 05:37:59;;;;;;;7.45;3.30;;;;;;;;;;4779284;29;20266;-82
2024/03/27 05:40:25;;;;;;;3.25;2.95;;;;;;;;;;4791164;29;20554;-82
2024/03/27 05:42:51;;;;;;;3.13;2.53;;;;;;;;;;4797719;29;20249;-82
2024/03/27 05:45:17;;;;;;;7.50;3.30;;;;;;;;;;4749992;29;20905;-82
2024/03/27 05:47:43;;;;;;;4.60;3.67;;;;;;;;;;4734079;30;20813;-82
2024/03/27 05:50:09;;;;;;;3.60;2.83;;;;;;;;;;4700727;30;20457;-82
2024/03/27 05:52:36;;;;;;;5.15;3.67;;;;;;;;;;4709810;30;20519;-82
2024/03/27 05:55:03;;;;;;;6.50;3.65;;;;;;;;;;4725857;30;20284;-82
2024/03/27 05:57:30;;;;;;;5.65;3.63;;;;;;;;;;4727377;30;20280;-82
2024/03/27 05:59:56;;;;;;;5.47;3.70;;;;;;;;;;4717284;30;20284;-82
2024/03/27 06:02:22;;;;;;;5.45;3.33;;;;;;;;;;4684745;30;20202;-82
2024/03/27 06:04:48;;;;;;;4.60;3.85;;;;;;;;;;4705975;30;20571;-81
2024/03/27 06:07:14;;;;;;;4.53;3.47;;;;;;;;;;4752689;30;20234;-82
2024/03/27 06:09:41;;;;;;;5.93;3.78;;;;;;;;;;4725432;30;20448;-82
2024/03/27 06:12:07;;;;;;;4.22;2.95;;;;;;;;;;4769927;30;20215;-82
2024/03/27 06:14:32;;;;;;;4.50;3.33;;;;;;;;;;4743270;30;20230;-82
2024/03/27 06:16:58;;;;;;;5.00;3.80;;;;;;;;;;4761890;30;20192;-82
2024/03/27 06:19:25;;;;;;;4.23;3.70;;;;;;;;;;4773431;30;20421;-82
2024/03/27 06:21:50;;;;;;;6.38;3.38;;;;;;;;;;4791452;29;20465;-82
2024/03/27 06:24:16;;;;;;;6.07;3.50;;;;;;;;;;4769056;29;20218;-82
2024/03/27 06:26:42;;;;;;;4.43;3.90;;;;;;;;;;4766157;29;20490;-82
2024/03/27 06:29:08;;;;;;;7.37;3.67;;;;;;;;;;4747607;30;20455;-83
2024/03/27 06:31:34;;;;;;;5.43;3.80;;;;;;;;;;4763023;30;20446;-83
2024/03/27 06:34:00;;;;;;;5.93;4.20;;;;;;;;;;4778444;30;20981;-83
2024/03/27 06:36:26;;;;;;;5.80;3.93;;;;;;;;;;4805117;29;20827;-84
2024/03/27 06:38:52;;;;;;;6.50;4.10;;;;;;;;;;4777707;29;20437;-83
2024/03/27 06:41:18;;;;;;;7.17;4.03;;;;;;;;;;4736728;30;20439;-83
2024/03/27 06:43:47;;;;;;;4.90;3.57;;;;;;;;;;4748382;30;20497;-82
2024/03/27 06:46:13;;;;;;;5.00;4.20;;;;;;;;;;4765751;29;20489;-83
2024/03/27 06:48:51;;;;;;;6.80;3.92;;;;;;;;;;4760215;29;20211;-83
2024/03/27 06:51:17;;;;;;;4.85;4.22;;;;;;;;;;4748621;30;20199;-83
2024/03/27 06:53:44;;;;;;;8.03;3.53;;;;;;;;;;4691791;30;20210;-83
2024/03/27 06:56:10;;;;;;;7.30;3.22;;;;;;;;;;4701456;30;20512;-83
2024/03/27 06:58:35;;;;;;;8.53;3.90;;;;;;;;;;4656319;30;20343;-83
2024/03/27 07:01:02;;;;;;;4.37;3.40;;;;;;;;;;4703935;30;20452;-83
2024/03/27 07:03:28;;;;;;;11.45;4.10;;;;;;;;;;4670746;30;20598;-83
2024/03/27 07:05:54;;;;;;;4.60;3.75;;;;;;;;;;4676261;30;20234;-83
2024/03/27 07:08:20;;;;;;;5.60;3.80;;;;;;;;;;4645170;30;20217;-83
2024/03/27 07:10:46;;;;;;;8.30;4.63;;;;;;;;;;4704119;30;20639;-82
2024/03/27 07:13:11;;;;;;;6.40;4.80;;;;;;;;;;4730538;30;20443;-83
2024/03/27 07:15:37;;;;;;;4.80;3.90;;;;;;;;;;4771874;30;20469;-83
2024/03/27 07:18:04;;;;;;;5.72;3.50;;;;;;;;;;4805418;29;20427;-82
2024/03/27 07:20:30;;;;;;;5.70;3.85;;;;;;;;;;4839238;29;20212;-83
2024/03/27 07:22:56;;;;;;;5.28;3.63;;;;;;;;;;4795180;29;20194;-83
2024/03/27 07:25:22;;;;;;;5.30;3.27;;;;;;;;;;4756141;29;20305;-83
2024/03/27 07:27:48;;;;;;;5.20;3.33;;;;;;;;;;4735323;30;20438;-83
2024/03/27 07:30:14;;;;;;;3.13;2.83;;;;;;;;;;4738169;30;20482;-82
2024/03/27 07:32:40;;;;;;;5.72;3.55;;;;;;;;;;4744750;30;20442;-82
2024/03/27 07:35:06;;;;;;;5.23;3.40;;;;;;;;;;4749258;29;20207;-83
2024/03/27 07:37:32;;;;;;;4.20;3.20;;;;;;;;;;4739447;30;20853;-82
2024/03/27 07:39:58;;;;;;;8.53;3.30;;;;;;;;;;4771262;30;20302;-83
2024/03/27 07:42:23;;;;;;;9.23;4.27;;;;;;;;;;4746954;29;20988;-82
2024/03/27 07:44:49;;;;;;;5.83;3.63;;;;;;;;;;4725939;29;20904;-83
2024/03/27 07:47:15;;;;;;;5.50;3.60;;;;;;;;;;4766387;29;20486;-89
2024/03/27 07:49:41;;;;;;;6.43;3.53;;;;;;;;;;4746190;30;20534;-85
2024/03/27 07:52:07;;;;;;;7.03;2.90;;;;;;;;;;4754525;30;21008;-85
2024/03/27 07:54:33;;;;;;;8.40;3.60;;;;;;;;;;4757528;30;20473;-85
2024/03/27 07:57:06;;;;;;;3.53;2.37;;;;;;;;;;4754625;30;20650;-85
2024/03/27 07:59:33;;;;;;;3.53;2.33;;;;;;;;;;4746792;29;20447;-85
2024/03/27 08:01:59;;;;;;;5.90;2.25;;;;;;;;;;4712938;30;20456;-85
2024/03/27 08:04:25;;;;;;;5.13;2.50;;;;;;;;;;4688576;30;20578;-85
2024/03/27 08:06:51;;;;;;;4.60;1.90;;;;;;;;;;4706199;30;20575;-84
2024/03/27 08:09:18;;;;;;;2.93;1.67;;;;;;;;;;4735263;30;20462;-85
2024/03/27 08:11:44;;;;;;;3.80;1.38;;;;;;;;;;4658768;30;20475;-84
2024/03/27 08:14:10;;;;;;;2.92;1.20;;;;;;;;;;4671015;30;20641;-84
2024/03/27 08:16:36;;;;;;;2.80;1.30;;;;;;;;;;4674032;30;20306;-82
2024/03/27 08:19:02;;;;;;;4.50;1.40;;;;;;;;;;4687149;30;20438;-82
2024/03/27 08:21:28;;;;;;;5.40;1.70;;;;;;;;;;4675445;30;20961;-81
2024/03/27 08:23:56;;;;;;;2.60;1.50;;;;;;;;;;4663700;30;20467;-81
2024/03/27 08:26:22;;;;;;;2.90;1.23;;;;;;;;;;4655411;30;20487;-81
2024/03/27 08:28:48;;;;;;;5.50;1.50;;;;;;;;;;4640357;30;20459;-81
2024/03/27 08:31:14;;;;;;;1.40;1.20;;;;;;;;;;4639697;30;20918;-82
2024/03/27 08:33:40;;;;;;;2.17;1.33;;;;;;;;;;4626202;30;20439;-82
2024/03/27 08:36:06;;;;;;;3.30;1.37;;;;;;;;;;4637506;30;20518;-83
2024/03/27 08:38:32;;;;;;;2.63;1.20;;;;;;;;;;4704621;30;20452;-82
2024/03/27 08:40:59;;;;;;;3.42;1.20;;;;;;;;;;4675129;30;20218;-81
2024/03/27 08:43:25;;;;;;;2.20;1.27;;;;;;;;;;4700533;30;20249;-81
2024/03/27 08:45:51;;;;;;;3.53;1.63;;;;;;;;;;4706069;30;20231;-81
2024/03/27 08:48:17;;;;;;;1.43;1.33;;;;;;;;;;4718378;30;20480;-82
2024/03/27 08:50:43;;;;;;;1.57;1.47;;;;;;;;;;4742833;30;20435;-81
2024/03/27 08:53:09;;;;;;;2.70;1.20;;;;;;;;;;4744837;30;20446;-81
2024/03/27 08:55:41;;;;;;;2.20;1.30;;;;;;;;;;4757037;30;20525;-82
2024/03/27 08:58:08;;;;;;;2.25;2.00;;;;;;;;;;4771415;30;20513;-82
2024/03/27 09:00:34;;;;;;;1.90;1.55;;;;;;;;;;4764357;29;20238;-81
2024/03/27 09:03:01;;;;;;;3.83;1.40;;;;;;;;;;4761375;30;20594;-82
2024/03/27 09:05:28;;;;;;;1.85;1.25;;;;;;;;;;4731767;30;20743;-82
2024/03/27 09:07:54;;;;;;;1.65;1.50;;;;;;;;;;4758750;30;20204;-81
2024/03/27 09:10:20;;;;;;;2.83;1.60;;;;;;;;;;4745109;30;20216;-80
2024/03/27 09:12:45;;;;;;;5.30;1.57;;;;;;;;;;4737339;30;20200;-81
2024/03/27 09:15:11;;;;;;;3.70;1.20;;;;;;;;;;4746232;30;21448;-81
2024/03/27 09:17:37;;;;;;;1.80;1.60;;;;;;;;;;4756196;29;20442;-80
2024/03/27 09:20:05;;;;;;;3.00;1.60;;;;;;;;;;4774662;29;20907;-81
2024/03/27 09:22:32;;;;;;;4.72;1.67;;;;;;;;;;4789174;29;20453;-81
2024/03/27 09:24:58;;;;;;;3.78;1.70;;;;;;;;;;4751185;30;20204;-80
2024/03/27 09:27:24;;;;;;;3.85;1.90;;;;;;;;;;4776612;29;20250;-81
2024/03/27 09:29:53;;;;;;;2.40;1.73;;;;;;;;;;4813744;29;20210;-81
2024/03/27 09:32:19;;;;;;;3.25;1.95;;;;;;;;;;4803723;29;20448;-81
2024/03/27 09:34:48;;;;;;;2.03;1.60;;;;;;;;;;4784052;29;20241;-82
2024/03/27 09:37:15;;;;;;;2.72;2.10;;;;;;;;;;4797173;29;20199;-81
2024/03/27 09:39:41;;;;;;;5.30;2.15;;;;;;;;;;4825053;29;20541;-81
2024/03/27 09:42:07;;;;;;;2.25;1.95;;;;;;;;;;4818538;29;20244;-82
2024/03/27 09:44:33;;;;;;;3.77;2.33;;;;;;;;;;4728461;30;20210;-82
2024/03/27 09:47:00;;;;;;;2.17;1.97;;;;;;;;;;4725831;30;20488;-81
2024/03/27 09:49:29;;;;;;;2.60;2.40;;;;;;;;;;4753469;30;21013;-80
2024/03/27 09:51:58;;;;;;;1.85;1.70;;;;;;;;;;4725291;30;20646;-81
2024/03/27 09:54:28;;;;;;;2.00;1.80;;;;;;;;;;4691155;30;20210;-81
2024/03/27 09:56:54;;;;;;;3.47;2.63;;;;;;;;;;4684479;30;20220;-83
2024/03/27 09:59:20;;;;;;;5.30;2.08;;;;;;;;;;4690569;30;20215;-81
2024/03/27 10:01:46;;;;;;;3.43;2.60;;;;;;;;;;4703142;30;20225;-81
2024/03/27 10:04:12;;;;;;;3.43;2.53;;;;;;;;;;4718428;30;20435;-81
2024/03/27 10:06:38;;;;;;;3.63;2.57;;;;;;;;;;4671315;30;20985;-80
2024/03/27 10:09:05;;;;;;;2.10;1.90;;;;;;;;;;4689356;30;20450;-82
2024/03/27 10:11:31;;;;;;;3.35;2.50;;;;;;;;;;4668689;30;20266;-82
2024/03/27 10:13:57;;;;;;;2.55;2.05;;;;;;;;;;4652227;30;20282;-84
2024/03/27 10:16:23;;;;;;;2.40;1.90;;;;;;;;;;4666424;30;20215;-84
2024/03/27 10:18:49;;;;;;;5.30;2.23;;;;;;;;;;4666360;30;20443;-82
2024/03/27 10:21:15;;;;;;;3.00;2.33;;;;;;;;;;4622184;30;20454;-80
2024/03/27 10:23:42;;;;;;;3.67;2.60;;;;;;;;;;4621348;30;20896;-81
2024/03/27 10:26:08;;;;;;;3.42;2.30;;;;;;;;;;4637273;30;20332;-80
2024/03/27 10:28:35;;;;;;;3.22;2.88;;;;;;;;;;4650138;30;20216;-82
2024/03/27 10:31:04;;;;;;;3.05;2.78;;;;;;;;;;4661114;30;20218;-81
2024/03/27 10:33:30;;;;;;;3.20;2.40;;;;;;;;;;4656239;30;20209;-82
2024/03/27 10:35:58;;;;;;;4.25;2.90;;;;;;;;;;4700321;30;20342;-82
2024/03/27 10:38:24;;;;;;;5.68;2.75;;;;;;;;;;4732693;30;20193;-82
2024/03/27 10:40:53;;;;;;;3.83;3.47;;;;;;;;;;4692080;30;20203;-82
2024/03/27 10:43:23;;;;;;;4.22;3.83;;;;;;;;;;4731504;30;20333;-81
2024/03/27 10:45:50;;;;;;;3.92;3.40;;;;;;;;;;4724734;30;20250;-80
2024/03/27 10:48:17;;;;;;;3.67;3.15;;;;;;;;;;4691978;30;20210;-82
2024/03/27 10:50:43;;;;;;;5.18;3.42;;;;;;;;;;4690358;30;20667;-81
2024/03/27 10:53:11;;;;;;;5.03;3.15;;;;;;;;;;4769930;30;20211;-81
2024/03/27 10:55:39;;;;;;;3.25;2.80;;;;;;;;;;4772623;29;20210;-81
2024/03/27 10:58:05;;;;;;;4.10;3.30;;;;;;;;;;4788182;29;20206;-83
2024/03/27 11:00:32;;;;;;;6.93;3.30;;;;;;;;;;4787503;29;20203;-83
2024/03/27 11:02:58;;;;;;;3.80;3.05;;;;;;;;;;4776466;29;20278;-82
2024/03/27 11:05:28;;;;;;;3.88;2.55;;;;;;;;;;4789625;29;20321;-82
2024/03/27 11:07:55;;;;;;;7.18;3.10;;;;;;;;;;4782681;30;20203;-82
2024/03/27 11:10:22;;;;;;;3.70;2.85;;;;;;;;;;4741652;30;20286;-82
2024/03/27 11:12:48;;;;;;;3.20;2.47;;;;;;;;;;4769226;30;20196;-84
2024/03/27 11:15:14;;;;;;;3.28;2.30;;;;;;;;;;4723978;30;20663;-83
2024/03/27 11:17:48;;;;;;;2.63;2.15;;;;;;;;;;4722378;30;20212;-85
2024/03/27 11:20:15;;;;;;;3.08;2.22;;;;;;;;;;4779770;30;20195;-84
2024/03/27 11:22:43;;;;;;;3.10;2.22;;;;;;;;;;4802210;29;20239;-84
2024/03/27 11:25:10;;;;;;;2.65;1.85;;;;;;;;;;4792030;29;20199;-85
2024/03/27 11:27:37;;;;;;;2.42;2.00;;;;;;;;;;4822167;29;20748;-86
2024/03/27 11:30:03;;;;;;;2.88;2.58;;;;;;;;;;4810435;29;20206;-85
2024/03/27 11:32:39;;;;;;;3.22;2.28;;;;;;;;;;4788774;29;20194;-88
2024/03/27 11:35:05;;;;;;;3.05;2.42;;;;;;;;;;4756736;30;20192;-90
2024/03/27 11:37:31;;;;;;;4.53;3.17;;;;;;;;;;4784307;29;20198;-89
2024/03/27 11:39:57;;;;;;;3.63;2.40;;;;;;;;;;4757589;30;20238;-89
2024/03/27 11:42:24;;;;;;;3.03;1.95;;;;;;;;;;4718169;30;20648;-88
2024/03/27 11:44:50;;;;;;;7.38;3.00;;;;;;;;;;4717365;30;20197;-89
2024/03/27 11:47:16;;;;;;;3.03;2.65;;;;;;;;;;4739243;30;20277;-90
2024/03/27 11:49:43;;;;;;;2.70;2.47;;;;;;;;;;4737263;30;20268;-88
2024/03/27 11:52:10;;;;;;;4.18;3.08;;;;;;;;;;4770069;29;20206;-86
2024/03/27 11:54:36;;;;;;;6.40;3.30;;;;;;;;;;4769856;30;20223;-86
2024/03/27 11:57:02;;;;;;;4.30;3.33;;;;;;;;;;4750801;30;20209;-88
2024/03/27 11:59:28;;;;;;;4.90;3.97;;;;;;;;;;4723568;30;20499;-86
2024/03/27 12:01:54;;;;;;;3.80;3.40;;;;;;;;;;4723122;30;20988;-89
2024/03/27 12:04:20;;;;;;;4.68;3.58;;;;;;;;;;4768337;30;20467;-88
2024/03/27 12:06:46;;;;;;;4.93;3.70;;;;;;;;;;4777708;30;20246;-86
2024/03/27 12:09:15;;;;;;;5.78;3.70;;;;;;;;;;4765589;30;20197;-89
2024/03/27 12:11:42;;;;;;;4.20;3.58;;;;;;;;;;4753516;30;20200;-90
2024/03/27 12:14:14;;;;;;;4.43;3.83;;;;;;;;;;4741450;30;20217;-91
2024/03/27 12:16:40;;;;;;;6.78;4.05;;;;;;;;;;4768505;30;20204;-91
2024/03/27 12:19:07;;;;;;;5.45;4.32;;;;;;;;;;4767204;30;20294;-88
2024/03/27 12:21:33;;;;;;;4.53;3.70;;;;;;;;;;4756786;30;20203;-88
2024/03/27 12:23:59;;;;;;;3.47;3.17;;;;;;;;;;4765778;30;20576;-90
2024/03/27 12:26:25;;;;;;;4.78;4.03;;;;;;;;;;4752279;30;20235;-89
2024/03/27 12:28:51;;;;;;;4.77;4.03;;;;;;;;;;4757379;30;20210;-89
2024/03/27 12:31:35;;;;;;;4.45;3.95;;;;;;;;;;4784358;29;21077;-87
2024/03/27 12:34:01;;;;;;;4.78;4.32;;;;;;;;;;4750561;30;20196;-88
2024/03/27 12:36:29;;;;;;;4.33;3.90;;;;;;;;;;4770685;30;20211;-87
2024/03/27 12:38:56;;;;;;;3.72;3.33;;;;;;;;;;4757684;30;20454;-88
2024/03/27 12:41:21;;;;;;;3.50;3.20;;;;;;;;;;4777855;30;20199;-86
2024/03/27 12:43:47;;;;;;;3.07;2.40;;;;;;;;;;4775429;29;20246;-85
2024/03/27 12:46:13;;;;;;;2.57;2.37;;;;;;;;;;4797464;29;20494;-89
2024/03/27 12:48:39;;;;;;;2.20;2.00;;;;;;;;;;4763128;29;20940;-88
2024/03/27 12:51:05;;;;;;;2.27;1.87;;;;;;;;;;4748512;30;20454;-86
2024/03/27 12:53:31;;;;;;;3.40;1.77;;;;;;;;;;4834886;29;20486;-85
2024/03/27 12:55:57;;;;;;;2.85;1.80;;;;;;;;;;4785685;29;20459;-85
2024/03/27 12:58:23;;;;;;;2.20;1.60;;;;;;;;;;4830897;29;20289;-83
2024/03/27 13:00:49;;;;;;;1.63;1.23;;;;;;;;;;4793060;29;20232;-85
2024/03/27 13:03:15;;;;;;;1.45;1.30;;;;;;;;;;4794443;29;20432;-83
2024/03/27 13:05:42;;;;;;;2.10;1.90;;;;;;;;;;4838426;29;20197;-84
2024/03/27 13:08:08;;;;;;;1.42;1.15;;;;;;;;;;4828708;29;20784;-82
2024/03/27 13:10:36;;;;;;;1.20;0.90;;;;;;;;;;4797254;29;20681;-83
2024/03/27 13:13:02;;;;;;;2.47;1.30;;;;;;;;;;4793986;29;20233;-83
2024/03/27 13:15:28;;;;;;;2.75;1.48;;;;;;;;;;4749097;30;20714;-82
2024/03/27 13:17:54;;;;;;;1.00;0.80;;;;;;;;;;4752313;30;20323;-83
2024/03/27 13:20:20;;;;;;;1.97;1.10;;;;;;;;;;4735833;30;20419;-83
2024/03/27 13:22:47;;;;;;;2.47;1.05;;;;;;;;;;4737456;30;21074;-82
2024/03/27 13:25:13;;;;;;;2.17;0.70;;;;;;;;;;4777390;30;20703;-81
2024/03/27 13:27:39;;;;;;;3.17;1.20;;;;;;;;;;4759753;29;20224;-83
2024/03/27 13:30:06;;;;;;;2.20;0.90;;;;;;;;;;4763531;30;20435;-84
2024/03/27 13:32:32;;;;;;;3.15;1.13;;;;;;;;;;4774623;29;20260;-84
2024/03/27 13:34:58;;;;;;;2.17;0.70;;;;;;;;;;4775464;30;20667;-83
2024/03/27 13:37:24;;;;;;;1.20;0.90;;;;;;;;;;4778654;29;20207;-83
2024/03/27 13:39:50;;;;;;;1.50;1.00;;;;;;;;;;4806664;29;20511;-83
2024/03/27 13:42:16;;;;;;;2.00;0.87;;;;;;;;;;4754665;29;1063931;-81
2024/03/27 13:44:42;;;;;;;2.80;1.23;;;;;;;;;;4731384;30;20237;-82
2024/03/27 13:47:08;;;;;;;2.00;1.10;;;;;;;;;;4759845;30;20534;-82
2024/03/27 13:49:34;;;;;;;2.05;1.38;;;;;;;;;;4717892;30;20969;-81
2024/03/27 13:52:00;;;;;;;2.20;1.10;;;;;;;;;;4727923;30;20302;-81
2024/03/27 13:54:26;;;;;;;1.10;1.00;;;;;;;;;;4710638;30;20206;-81
2024/03/27 13:56:52;;;;;;;2.60;1.20;;;;;;;;;;4714187;30;20221;-81
2024/03/27 13:59:18;;;;;;;3.63;1.33;;;;;;;;;;4731535;30;20481;-81
2024/03/27 14:01:44;;;;;;;3.43;1.13;;;;;;;;;;4752178;30;20849;-81
2024/03/27 14:04:11;;;;;;;1.50;1.10;;;;;;;;;;4715125;30;20585;-81
2024/03/27 14:06:37;;;;;;;2.30;1.10;;;;;;;;;;4741559;30;20489;-81
2024/03/27 14:09:06;;;;;;;2.40;1.23;;;;;;;;;;4727866;30;20293;-81
2024/03/27 14:11:32;;;;;;;1.48;1.25;;;;;;;;;;4753462;30;20442;-81
2024/03/27 14:14:00;;;;;;;1.33;1.17;;;;;;;;;;4736392;30;20197;-80
2024/03/27 14:16:27;;;;;;;2.92;1.40;;;;;;;;;;4751751;30;20216;-80
2024/03/27 14:18:53;;;;;;;2.50;1.40;;;;;;;;;;4699677;30;20195;-81
2024/03/27 14:21:19;;;;;;;2.38;1.65;;;;;;;;;;4684288;30;20608;-80
2024/03/27 14:23:45;;;;;;;2.40;1.98;;;;;;;;;;4682778;30;20580;-80
2024/03/27 14:26:11;;;;;;;2.13;1.93;;;;;;;;;;4717308;30;20221;-81
2024/03/27 14:28:37;;;;;;;2.47;1.42;;;;;;;;;;4748505;30;20446;-81
2024/03/27 14:31:04;;;;;;;2.78;1.90;;;;;;;;;;4771559;30;20195;-80
2024/03/27 14:33:30;;;;;;;1.60;1.40;;;;;;;;;;4774760;29;20214;-80
2024/03/27 14:35:57;;;;;;;2.08;1.40;;;;;;;;;;4783388;29;20206;-81
2024/03/27 14:38:23;;;;;;;3.10;1.50;;;;;;;;;;4790961;29;20256;-80